Terminal Aerodrome Forecast
Issued by NWS

Home | Current Version | Previous Version | Text Only | Print | Product List | Glossary On
Versions: 1 2 3 4 5 6 7 8 9 10 11 12 13 14 15 16 17 18 19 20 21 22 23 24 25
000
FTUS41 KRLX 130200 AAA
TAFCKB
TAF AMD
KCKB 130234Z 1303/1324 VRB03KT P6SM SCT100
     FM130900 21006KT 6SM HZ SCT050 BKN090
     FM131500 22012G22KT 6SM HZ BKN040 BKN100
     FM132200 22010G20KT 5SM TSRA BKN035CB BKN080=

USA.gov is the U.S. government's official web portal to all federal, state and local government web resources and services.